createdAt,value
2018-02-10T00:00:44.906Z,72.22
2018-02-10T00:03:11.922Z,73.85
2018-02-10T00:05:38.196Z,74.53
2018-02-10T00:08:04.470Z,78.93
2018-02-10T00:10:30.772Z,73.15
2018-02-10T00:12:57.078Z,73.82
2018-02-10T00:15:23.364Z,62.53
2018-02-10T00:17:49.686Z,74.53
2018-02-10T00:20:16.014Z,80.18
2018-02-10T00:22:42.346Z,62.90
2018-02-10T00:25:09.667Z,77.62
2018-02-10T00:27:35.993Z,77.32
2018-02-10T00:30:02.328Z,74.95
2018-02-10T00:32:28.602Z,71.15
2018-02-10T00:34:54.888Z,73.40
2018-02-10T00:37:21.195Z,74.78
2018-02-10T00:39:48.220Z,74.47
2018-02-10T00:42:14.514Z,69.20
2018-02-10T00:44:40.803Z,71.03
2018-02-10T00:47:07.826Z,79.12
2018-02-10T00:49:34.111Z,70.20
2018-02-10T00:52:00.392Z,75.55
2018-02-10T00:54:26.699Z,84.05
2018-02-10T00:56:52.999Z,74.78
2018-02-10T00:59:19.303Z,77.05
2018-02-10T01:01:46.329Z,88.43
2018-02-10T01:04:12.655Z,79.40
2018-02-10T01:06:38.940Z,84.45
2018-02-10T01:09:05.268Z,95.00
2018-02-10T01:11:31.550Z,85.87
2018-02-10T01:13:57.838Z,82.25
2018-02-10T01:16:24.134Z,95.85
2018-02-10T01:18:51.176Z,96.07
2018-02-10T01:21:19.214Z,93.45
2018-02-10T01:23:45.526Z,96.20
2018-02-10T01:26:11.814Z,89.03
2018-02-10T01:28:38.883Z,88.72
2018-02-10T01:31:05.195Z,91.35
2018-02-10T01:33:31.511Z,91.95
2018-02-10T01:35:58.534Z,87.62
2018-02-10T01:38:24.826Z,91.57
2018-02-10T01:40:51.090Z,92.97
2018-02-10T01:43:17.422Z,96.53
2018-02-10T01:45:43.714Z,101.38
2018-02-10T01:48:09.987Z,113.20
2018-02-10T01:50:36.268Z,103.07
2018-02-10T01:53:02.567Z,106.40
2018-02-10T01:55:29.622Z,90.53
2018-02-10T01:57:56.667Z,97.97
2018-02-10T02:00:23.706Z,99.25
2018-02-10T02:02:50.718Z,110.93
2018-02-10T02:05:17.051Z,103.18
2018-02-10T02:07:44.377Z,88.57
2018-02-10T02:10:10.650Z,111.43
2018-02-10T02:12:36.935Z,102.78
2018-02-10T02:15:03.253Z,115.28
2018-02-10T02:17:31.323Z,98.53
2018-02-10T02:19:57.677Z,106.72
2018-02-10T02:22:23.954Z,112.22
2018-02-10T02:24:51.013Z,104.60
2018-02-10T02:27:18.026Z,108.57
2018-02-10T02:29:44.323Z,118.03
2018-02-10T02:32:10.630Z,101.60
2018-02-10T02:34:37.674Z,91.97
2018-02-10T02:37:04.718Z,90.32
2018-02-10T02:39:31.759Z,96.10
2018-02-10T02:41:59.423Z,99.07
2018-02-10T02:44:26.567Z,85.53
2018-02-10T02:46:53.586Z,76.18
2018-02-10T02:49:19.894Z,86.15
2018-02-10T02:51:46.176Z,87.32
2018-02-10T02:54:13.255Z,86.63
2018-02-10T02:56:39.555Z,81.32
2018-02-10T02:59:06.575Z,88.20
2018-02-10T03:01:32.865Z,82.32
2018-02-10T03:03:59.199Z,80.90
2018-02-10T03:06:25.490Z,86.80
2018-02-10T03:08:51.777Z,68.85
2018-02-10T03:11:18.086Z,78.43
2018-02-10T03:13:44.366Z,74.50
2018-02-10T03:16:10.670Z,76.87
2018-02-10T03:18:36.947Z,69.53
2018-02-10T03:21:04.003Z,71.93
2018-02-10T03:23:31.037Z,80.12
2018-02-10T03:25:58.074Z,76.60
2018-02-10T03:28:24.352Z,66.57
2018-02-10T03:30:50.647Z,66.25
2018-02-10T03:33:17.674Z,74.65
2018-02-10T03:35:43.978Z,67.07
2018-02-10T03:38:10.270Z,71.20
2018-02-10T03:40:37.319Z,71.55
2018-02-10T03:43:03.622Z,67.72
2018-02-10T03:45:30.954Z,67.32
2018-02-10T03:47:57.222Z,71.00
2018-02-10T03:50:23.538Z,78.57
2018-02-10T03:52:49.818Z,70.72
2018-02-10T03:55:16.153Z,74.30
2018-02-10T03:57:42.452Z,68.00
2018-02-10T04:00:08.736Z,67.93
2018-02-10T04:02:35.043Z,71.53
2018-02-10T04:05:01.347Z,68.90
2018-02-10T04:07:27.726Z,69.37
2018-02-10T04:09:54.015Z,72.22
2018-02-10T04:12:20.297Z,70.10
2018-02-10T04:14:46.575Z,71.40
2018-02-10T04:17:12.870Z,82.35
2018-02-10T04:19:39.960Z,71.28
2018-02-10T04:22:06.256Z,68.15
2018-02-10T04:24:33.288Z,78.22
2018-02-10T04:26:59.558Z,66.43
2018-02-10T04:29:26.777Z,72.15
2018-02-10T04:31:53.065Z,75.20
2018-02-10T04:34:19.366Z,68.65
2018-02-10T04:36:45.650Z,73.57
2018-02-10T04:39:11.935Z,64.75
2018-02-10T04:41:38.232Z,81.70
2018-02-10T04:44:05.267Z,77.43
2018-02-10T04:46:31.546Z,62.45
2018-02-10T04:48:57.826Z,71.95
2018-02-10T04:51:24.136Z,64.25
2018-02-10T04:53:50.412Z,67.97
2018-02-10T04:56:16.806Z,65.18
2018-02-10T04:58:43.103Z,66.50
2018-02-10T05:01:09.407Z,73.80
2018-02-10T05:03:36.432Z,63.28
2018-02-10T05:06:04.170Z,68.10
2018-02-10T05:08:30.455Z,55.10
2018-02-10T05:10:56.718Z,59.88
2018-02-10T05:13:22.995Z,66.00
2018-02-10T05:15:50.054Z,62.40
2018-02-10T05:18:17.134Z,60.15
2018-02-10T05:20:43.411Z,60.47
2018-02-10T05:23:09.686Z,67.05
2018-02-10T05:25:35.963Z,67.45
2018-02-10T05:28:02.275Z,76.30
2018-02-10T05:30:28.588Z,63.00
2018-02-10T05:32:54.857Z,63.28
2018-02-10T05:35:21.139Z,77.12
2018-02-10T05:37:48.060Z,58.38
2018-02-10T05:40:15.087Z,62.58
2018-02-10T05:42:41.379Z,58.47
2018-02-10T05:45:07.676Z,57.38
2018-02-10T05:47:33.946Z,58.92
2018-02-10T05:50:01.246Z,58.45
2018-02-10T05:52:28.258Z,65.82
2018-02-10T05:54:54.534Z,59.70
2018-02-10T05:57:20.807Z,57.30
2018-02-10T05:59:47.109Z,55.60
2018-02-10T06:02:13.402Z,57.47
2018-02-10T06:04:40.411Z,61.97
2018-02-10T06:07:06.684Z,58.97
2018-02-10T06:09:32.954Z,59.95
2018-02-10T06:11:59.229Z,55.17
2018-02-10T06:14:25.510Z,51.63
2018-02-10T06:16:51.818Z,52.13
2018-02-10T06:19:18.102Z,60.67
2018-02-10T06:21:45.169Z,60.00
2018-02-10T06:24:11.459Z,60.83
2018-02-10T06:26:37.755Z,54.53
2018-02-10T06:29:04.055Z,58.55
2018-02-10T06:31:30.346Z,59.78
2018-02-10T06:33:56.662Z,70.35
2018-02-10T06:36:22.954Z,59.67
2018-02-10T06:38:49.986Z,59.55
2018-02-10T06:41:17.310Z,58.58
2018-02-10T06:43:43.586Z,54.47
2018-02-10T06:46:10.630Z,58.85
2018-02-10T06:48:36.914Z,62.10
2018-02-10T06:51:04.222Z,63.78
2018-02-10T06:53:31.283Z,58.45
2018-02-10T06:55:58.327Z,54.40
2018-02-10T06:58:25.346Z,63.05
2018-02-10T07:00:51.638Z,53.45
2018-02-10T07:03:17.946Z,55.78
2018-02-10T07:05:44.239Z,59.00
2018-02-10T07:08:10.542Z,54.25
2018-02-10T07:10:36.815Z,62.10
2018-02-10T07:13:03.103Z,55.85
2018-02-10T07:15:30.039Z,56.97
2018-02-10T07:17:56.350Z,54.17
2018-02-10T07:20:22.646Z,54.00
2018-02-10T07:22:48.954Z,51.85
2018-02-10T07:25:15.361Z,50.42
2018-02-10T07:27:41.670Z,60.60
2018-02-10T07:30:07.959Z,54.10
2018-02-10T07:32:34.283Z,53.08
2018-02-10T07:35:00.571Z,58.97
2018-02-10T07:37:26.882Z,52.70
2018-02-10T07:39:53.897Z,55.72
2018-02-10T07:42:20.202Z,59.42
2018-02-10T07:44:46.533Z,63.80
2018-02-10T07:47:12.834Z,66.07
2018-02-10T07:49:39.124Z,72.30
2018-02-10T07:52:05.463Z,65.40
2018-02-10T07:54:31.810Z,72.15
2018-02-10T07:56:58.832Z,63.65
2018-02-10T07:59:25.105Z,85.72
2018-02-10T08:01:51.383Z,100.57
2018-02-10T08:04:18.410Z,79.40
2018-02-10T08:06:44.683Z,62.72
2018-02-10T08:09:11.694Z,54.40
2018-02-10T08:11:37.986Z,46.37
2018-02-10T08:14:04.287Z,44.97
2018-02-10T08:16:31.298Z,57.10
2018-02-10T08:18:57.594Z,48.35
2018-02-10T08:21:23.889Z,49.95
2018-02-10T08:23:50.186Z,40.15
2018-02-10T08:26:16.462Z,63.20
2018-02-10T08:28:43.514Z,41.88
2018-02-10T08:31:10.531Z,48.47
2018-02-10T08:33:36.831Z,47.15
2018-02-10T08:36:03.114Z,43.42
2018-02-10T08:38:30.154Z,63.58
2018-02-10T08:40:56.439Z,62.22
2018-02-10T08:43:22.738Z,48.50
2018-02-10T08:45:49.027Z,46.17
2018-02-10T08:48:16.331Z,42.03
2018-02-10T08:50:42.629Z,51.70
2018-02-10T08:53:09.954Z,76.55
2018-02-10T08:55:36.234Z,50.30
2018-02-10T08:58:03.284Z,50.55
2018-02-10T09:00:30.306Z,46.08
2018-02-10T09:02:56.594Z,41.97
2018-02-10T09:05:22.870Z,48.13
2018-02-10T09:07:49.302Z,40.40
2018-02-10T09:10:16.634Z,46.92
2018-02-10T09:12:42.906Z,45.63
2018-02-10T09:15:09.927Z,50.15
2018-02-10T09:17:36.295Z,50.42
2018-02-10T09:20:03.266Z,55.75
2018-02-10T09:22:29.578Z,43.30
2018-02-10T09:24:55.849Z,45.12
2018-02-10T09:27:22.119Z,39.63
2018-02-10T09:29:50.210Z,49.22
2018-02-10T09:32:16.555Z,35.95
2018-02-10T09:34:42.854Z,36.13
2018-02-10T09:37:09.902Z,47.15
2018-02-10T09:39:36.934Z,41.28
2018-02-10T09:42:03.215Z,32.47
2018-02-10T09:44:29.507Z,34.60
2018-02-10T09:46:56.546Z,33.90
2018-02-10T09:49:23.606Z,35.95
2018-02-10T09:51:50.623Z,37.40
2018-02-10T09:54:16.946Z,37.13
2018-02-10T09:56:43.233Z,36.58
2018-02-10T09:59:09.563Z,37.92
2018-02-10T10:01:35.879Z,29.92
2018-02-10T10:04:02.213Z,34.65
2018-02-10T10:06:28.510Z,33.15
2018-02-10T10:08:54.866Z,29.65
2018-02-10T10:11:21.902Z,30.83
2018-02-10T10:13:48.938Z,35.50
2018-02-10T10:16:15.231Z,34.00
2018-02-10T10:18:41.550Z,33.53
2018-02-10T10:21:07.852Z,30.58
2018-02-10T10:23:34.902Z,32.55
2018-02-10T10:26:01.930Z,28.75
2018-02-10T10:28:28.963Z,31.62
2018-02-10T10:30:55.273Z,31.62
2018-02-10T10:33:21.585Z,27.73
2018-02-10T10:35:48.890Z,34.25
2018-02-10T10:38:15.954Z,50.35
2018-02-10T10:40:42.983Z,29.87
2018-02-10T10:43:09.311Z,25.30
2018-02-10T10:45:36.603Z,28.35
2018-02-10T10:48:02.898Z,30.40
2018-02-10T10:50:29.179Z,29.33
2018-02-10T10:52:55.492Z,28.10
2018-02-10T10:55:21.782Z,29.00
2018-02-10T10:57:48.094Z,35.05
2018-02-10T11:00:14.414Z,25.33
2018-02-10T11:02:40.703Z,29.08
2018-02-10T11:05:07.062Z,25.88
2018-02-10T11:07:33.339Z,28.10
2018-02-10T11:09:59.620Z,28.92
2018-02-10T11:12:25.922Z,26.35
2018-02-10T11:14:53.834Z,34.35
2018-02-10T11:17:20.120Z,27.10
2018-02-10T11:19:47.146Z,29.63
2018-02-10T11:22:14.658Z,29.20
2018-02-10T11:24:40.971Z,30.50
2018-02-10T11:27:07.263Z,32.65
2018-02-10T11:29:34.283Z,29.20
2018-02-10T11:32:00.574Z,25.23
2018-02-10T11:34:26.858Z,26.30
2018-02-10T11:36:53.150Z,29.15
2018-02-10T11:39:19.438Z,27.13
2018-02-10T11:41:46.470Z,33.63
2018-02-10T11:44:12.768Z,34.78
2018-02-10T11:46:39.054Z,30.08
2018-02-10T11:49:06.776Z,39.00
2018-02-10T11:51:33.087Z,32.75
2018-02-10T11:53:59.414Z,28.75
2018-02-10T11:56:25.714Z,32.53
2018-02-10T11:58:52.006Z,24.02
2018-02-10T12:01:18.299Z,28.67
2018-02-10T12:03:45.361Z,31.12
2018-02-10T12:06:11.643Z,29.10
2018-02-10T12:08:38.667Z,32.50
2018-02-10T12:11:05.065Z,31.67
2018-02-10T12:13:32.388Z,30.37
2018-02-10T12:15:58.715Z,31.70
2018-02-10T12:18:25.758Z,26.75
2018-02-10T12:20:52.060Z,26.90
2018-02-10T12:23:20.229Z,24.35
2018-02-10T12:25:46.501Z,36.17
2018-02-10T12:28:12.770Z,24.00
2018-02-10T12:30:39.050Z,23.62
2018-02-10T12:33:06.058Z,25.75
2018-02-10T12:35:32.349Z,25.95
2018-02-10T12:37:58.644Z,23.98
2018-02-10T12:40:25.663Z,24.35
2018-02-10T12:42:51.930Z,24.60
2018-02-10T12:45:18.965Z,29.92
2018-02-10T12:47:58.878Z,22.13
2018-02-10T12:50:25.180Z,26.62
2018-02-10T12:52:51.478Z,26.62
2018-02-10T12:55:17.812Z,22.50
2018-02-10T12:57:44.846Z,25.77
2018-02-10T13:00:12.891Z,32.35
2018-02-10T13:02:39.163Z,26.83
2018-02-10T13:05:06.215Z,36.58
2018-02-10T13:07:33.248Z,28.62
2018-02-10T13:09:59.547Z,26.67
2018-02-10T13:12:25.861Z,26.12
2018-02-10T13:14:52.194Z,26.95
2018-02-10T13:17:18.467Z,19.85
2018-02-10T13:19:44.755Z,19.48
2018-02-10T13:22:11.035Z,38.00
2018-02-10T13:24:38.086Z,20.70
2018-02-10T13:27:05.166Z,20.00
2018-02-10T13:29:31.505Z,24.77
2018-02-10T13:31:57.814Z,19.08
2018-02-10T13:34:24.233Z,22.90
2018-02-10T13:36:51.414Z,26.17
2018-02-10T13:39:17.706Z,23.85
2018-02-10T13:41:44.738Z,24.23
2018-02-10T13:44:11.051Z,20.05
2018-02-10T13:46:37.343Z,23.42
2018-02-10T13:49:03.626Z,25.83
2018-02-10T13:51:29.907Z,20.67
2018-02-10T13:53:56.193Z,23.00
2018-02-10T13:56:22.519Z,21.75
2018-02-10T13:58:48.826Z,28.02
2018-02-10T14:01:15.107Z,21.42
2018-02-10T14:03:42.118Z,21.75
2018-02-10T14:06:08.423Z,21.67
2018-02-10T14:08:34.721Z,19.77
2018-02-10T14:11:01.739Z,25.45
2018-02-10T14:13:28.778Z,25.48
2018-02-10T14:15:55.707Z,24.50
2018-02-10T14:18:22.041Z,23.30
2018-02-10T14:20:48.353Z,67.05
2018-02-10T14:23:14.654Z,25.05
2018-02-10T14:25:41.955Z,22.05
2018-02-10T14:28:08.230Z,24.85
2018-02-10T14:30:35.283Z,20.42
2018-02-10T14:33:01.558Z,22.60
2018-02-10T14:35:27.838Z,30.08
2018-02-10T14:37:55.805Z,25.37
2018-02-10T14:40:22.909Z,27.20
2018-02-10T14:42:49.155Z,31.15
2018-02-10T14:45:16.473Z,25.98
2018-02-10T14:47:43.790Z,29.83
2018-02-10T14:50:10.814Z,30.33
2018-02-10T14:52:37.103Z,32.10
2018-02-10T14:55:03.423Z,40.08
2018-02-10T14:57:29.716Z,34.40
2018-02-10T14:59:56.727Z,29.35
2018-02-10T15:02:23.025Z,30.80
2018-02-10T15:04:49.334Z,39.03
2018-02-10T15:07:16.387Z,30.40
2018-02-10T15:09:42.681Z,29.37
2018-02-10T15:12:08.979Z,27.17
2018-02-10T15:14:35.300Z,37.13
2018-02-10T15:17:01.600Z,36.78
2018-02-10T15:19:28.626Z,44.13
2018-02-10T15:21:55.861Z,43.85
2018-02-10T15:24:22.191Z,35.38
2018-02-10T15:26:48.523Z,36.45
2018-02-10T15:29:14.842Z,31.65
2018-02-10T15:31:53.580Z,31.52
2018-02-10T15:34:21.814Z,30.95
2018-02-10T15:36:48.825Z,34.22
2018-02-10T15:39:15.114Z,34.78
2018-02-10T15:41:41.427Z,35.67
2018-02-10T15:44:07.714Z,32.33
2018-02-10T15:46:34.046Z,37.78
2018-02-10T15:49:00.339Z,85.50
2018-02-10T15:51:26.653Z,156.25
2018-02-10T15:53:52.943Z,100.43
2018-02-10T15:56:20.022Z,57.83
2018-02-10T15:58:46.314Z,60.88
2018-02-10T16:01:13.363Z,69.28
2018-02-10T16:03:39.636Z,47.53
2018-02-10T16:06:05.930Z,48.70
2018-02-10T16:08:32.954Z,60.72
2018-02-10T16:10:59.234Z,43.00
2018-02-10T16:13:25.514Z,31.95
2018-02-10T16:15:51.810Z,37.95
2018-02-10T16:18:18.083Z,48.08
2018-02-10T16:20:44.382Z,42.25
2018-02-10T16:23:10.662Z,36.80
2018-02-10T16:25:37.694Z,38.00
2018-02-10T16:28:03.985Z,32.42
2018-02-10T16:30:30.260Z,42.80
2018-02-10T16:32:57.307Z,44.05
2018-02-10T16:35:26.054Z,39.88
2018-02-10T16:37:52.366Z,38.13
2018-02-10T16:40:18.667Z,38.83
2018-02-10T16:42:45.690Z,29.42
2018-02-10T16:45:12.746Z,40.58
2018-02-10T16:47:39.820Z,44.33
2018-02-10T16:50:06.095Z,37.00
2018-02-10T16:52:32.403Z,34.63
2018-02-10T16:54:58.678Z,32.88
2018-02-10T16:57:24.999Z,32.50
2018-02-10T16:59:51.270Z,41.22
2018-02-10T17:02:17.683Z,37.47
2018-02-10T17:04:44.698Z,36.28
2018-02-10T17:07:11.006Z,41.13
2018-02-10T17:09:37.318Z,29.92
2018-02-10T17:12:03.595Z,37.88
2018-02-10T17:14:30.923Z,36.25
2018-02-10T17:16:57.218Z,35.42
2018-02-10T17:19:23.492Z,39.22
2018-02-10T17:21:49.771Z,43.75
2018-02-10T17:24:16.830Z,52.65
2018-02-10T17:26:43.132Z,46.47
2018-02-10T17:29:10.145Z,57.00
2018-02-10T17:31:36.454Z,45.22
2018-02-10T17:34:02.771Z,47.55
2018-02-10T17:36:29.102Z,42.65
2018-02-10T17:38:55.386Z,41.15
2018-02-10T17:41:21.683Z,45.75
2018-02-10T17:43:47.990Z,47.05
2018-02-10T17:46:14.300Z,36.65
2018-02-10T17:48:41.323Z,49.10
2018-02-10T17:51:08.598Z,54.90
2018-02-10T17:53:35.626Z,44.33
2018-02-10T17:56:01.916Z,48.10
2018-02-10T17:58:28.186Z,39.78
2018-02-10T18:00:55.202Z,47.85
2018-02-10T18:03:22.502Z,47.70
2018-02-10T18:05:49.551Z,42.75
2018-02-10T18:08:16.583Z,46.90
2018-02-10T18:10:42.889Z,49.75
2018-02-10T18:13:09.186Z,47.08
2018-02-10T18:15:35.477Z,47.85
2018-02-10T18:18:01.815Z,43.90
2018-02-10T18:20:28.850Z,43.33
2018-02-10T18:22:55.138Z,48.08
2018-02-10T18:25:21.415Z,50.75
2018-02-10T18:27:47.718Z,49.33
2018-02-10T18:30:13.999Z,50.95
2018-02-10T18:32:41.031Z,49.65
2018-02-10T18:35:08.074Z,49.85
2018-02-10T18:37:35.138Z,44.88
2018-02-10T18:40:02.190Z,45.75
2018-02-10T18:42:29.474Z,50.45
2018-02-10T18:44:55.751Z,47.47
2018-02-10T18:47:22.794Z,44.45
2018-02-10T18:49:49.099Z,41.10
2018-02-10T18:52:15.391Z,41.28
2018-02-10T18:54:41.687Z,40.55
2018-02-10T18:57:07.974Z,47.60
2018-02-10T18:59:34.266Z,46.05
2018-02-10T19:02:01.282Z,41.35
2018-02-10T19:04:27.569Z,43.70
2018-02-10T19:06:53.869Z,46.17
2018-02-10T19:09:20.925Z,50.12
2018-02-10T19:11:47.939Z,112.50
2018-02-10T19:14:14.271Z,68.75
2018-02-10T19:16:40.553Z,66.68
2018-02-10T19:19:06.841Z,39.10
2018-02-10T19:21:33.118Z,50.53
2018-02-10T19:23:59.410Z,39.03
2018-02-10T19:26:26.418Z,41.10
2018-02-10T19:28:52.717Z,35.33
2018-02-10T19:31:20.181Z,42.05
2018-02-10T19:33:46.516Z,43.13
2018-02-10T19:36:13.794Z,37.72
2018-02-10T19:38:40.093Z,39.80
2018-02-10T19:41:06.372Z,41.88
2018-02-10T19:43:33.423Z,37.72
2018-02-10T19:45:59.702Z,37.60
2018-02-10T19:48:26.012Z,42.40
2018-02-10T19:50:52.302Z,37.95
2018-02-10T19:53:18.618Z,36.08
2018-02-10T19:55:44.894Z,32.83
2018-02-10T19:58:11.927Z,34.80
2018-02-10T20:00:38.959Z,28.75
2018-02-10T20:03:06.755Z,38.45
2018-02-10T20:05:33.812Z,30.17
2018-02-10T20:08:00.121Z,33.92
2018-02-10T20:10:27.146Z,33.72
2018-02-10T20:12:53.426Z,42.97
2018-02-10T20:15:19.727Z,37.30
2018-02-10T20:17:46.762Z,31.05
2018-02-10T20:20:13.074Z,31.75
2018-02-10T20:22:39.347Z,32.00
2018-02-10T20:25:06.382Z,32.65
2018-02-10T20:27:32.695Z,34.45
2018-02-10T20:29:58.990Z,31.85
2018-02-10T20:32:25.306Z,28.45
2018-02-10T20:34:52.364Z,31.12
2018-02-10T20:37:18.674Z,27.33
2018-02-10T20:39:44.990Z,29.20
2018-02-10T20:42:12.053Z,21.20
2018-02-10T20:44:39.291Z,23.33
2018-02-10T20:47:06.336Z,27.58
2018-02-10T20:49:32.643Z,30.08
2018-02-10T20:51:58.972Z,23.87
2018-02-10T20:54:27.102Z,24.17
2018-02-10T20:56:53.379Z,26.05
2018-02-10T20:59:19.674Z,30.98
2018-02-10T21:01:45.992Z,24.37
2018-02-10T21:04:12.280Z,27.87
2018-02-10T21:06:39.322Z,29.15
2018-02-10T21:09:05.667Z,19.70
2018-02-10T21:11:32.710Z,25.10
2018-02-10T21:13:59.784Z,26.55
2018-02-10T21:16:26.163Z,26.58
2018-02-10T21:18:52.476Z,34.80
2018-02-10T21:21:18.774Z,63.75
2018-02-10T21:23:45.095Z,56.10
2018-02-10T21:26:12.130Z,18.98
2018-02-10T21:28:39.155Z,20.33
2018-02-10T21:31:06.569Z,19.45
2018-02-10T21:33:32.883Z,19.70
2018-02-10T21:35:59.202Z,22.45
2018-02-10T21:38:26.224Z,18.37
2018-02-10T21:40:52.566Z,21.98
2018-02-10T21:43:18.870Z,20.70
2018-02-10T21:45:45.295Z,18.55
2018-02-10T21:48:11.586Z,20.50
2018-02-10T21:50:39.619Z,19.60
2018-02-10T21:53:06.909Z,17.25
2018-02-10T21:55:33.193Z,19.48
2018-02-10T21:57:59.474Z,21.85
2018-02-10T22:00:25.863Z,21.95
2018-02-10T22:02:52.920Z,21.87
2018-02-10T22:05:19.218Z,17.67
2018-02-10T22:07:45.570Z,19.62
2018-02-10T22:10:12.658Z,23.35
2018-02-10T22:12:39.671Z,19.50
2018-02-10T22:15:05.964Z,22.77
2018-02-10T22:17:32.255Z,25.05
2018-02-10T22:19:59.311Z,20.70
2018-02-10T22:22:26.337Z,23.15
2018-02-10T22:24:52.671Z,21.60
2018-02-10T22:27:18.962Z,22.98
2018-02-10T22:29:45.291Z,27.02
2018-02-10T22:32:12.646Z,23.58
2018-02-10T22:34:38.963Z,24.15
2018-02-10T22:37:05.263Z,18.27
2018-02-10T22:39:32.326Z,24.15
2018-02-10T22:41:59.228Z,21.80
2018-02-10T22:44:25.529Z,23.98
2018-02-10T22:46:51.824Z,22.85
2018-02-10T22:49:18.138Z,19.55
2018-02-10T22:51:45.204Z,19.87
2018-02-10T22:54:11.527Z,17.83
2018-02-10T22:56:38.547Z,24.27
2018-02-10T22:59:04.860Z,19.08
2018-02-10T23:01:31.138Z,22.35
2018-02-10T23:03:58.158Z,22.67
2018-02-10T23:06:24.434Z,20.90
2018-02-10T23:08:50.730Z,21.02
2018-02-10T23:11:17.042Z,16.67
2018-02-10T23:13:43.327Z,18.10
2018-02-10T23:16:11.365Z,18.95
2018-02-10T23:18:37.660Z,20.50
2018-02-10T23:21:03.959Z,18.65
2018-02-10T23:23:30.970Z,16.12
2018-02-10T23:25:57.254Z,17.55
2018-02-10T23:28:23.522Z,14.77
2018-02-10T23:30:49.835Z,16.85
2018-02-10T23:33:17.160Z,17.75
2018-02-10T23:35:43.450Z,18.08
2018-02-10T23:38:09.734Z,14.70
2018-02-10T23:40:36.027Z,15.73
2018-02-10T23:43:04.063Z,15.48
2018-02-10T23:45:30.406Z,18.87
2018-02-10T23:47:56.684Z,16.83
2018-02-10T23:50:23.007Z,15.57
2018-02-10T23:52:49.299Z,17.08
2018-02-10T23:55:15.634Z,19.58
2018-02-10T23:57:41.934Z,15.30
